sensor_id;sensor_type;location;lat;lon;timestamp;temperature;humidity
52743;DHT22;55583;53.012;6.556;2023-05-02T00:00:27;11.00;99.90
52743;DHT22;55583;53.012;6.556;2023-05-02T00:02:53;11.30;99.90
52743;DHT22;55583;53.012;6.556;2023-05-02T00:05:19;11.00;99.90
52743;DHT22;55583;53.012;6.556;2023-05-02T00:07:45;11.20;99.90
52743;DHT22;55583;53.012;6.556;2023-05-02T00:10:11;10.70;99.90
52743;DHT22;55583;53.012;6.556;2023-05-02T00:12:36;10.70;99.90
52743;DHT22;55583;53.012;6.556;2023-05-02T00:15:03;10.60;99.90
52743;DHT22;55583;53.012;6.556;2023-05-02T00:17:29;10.50;99.90
52743;DHT22;55583;53.012;6.556;2023-05-02T00:19:55;10.50;99.90
52743;DHT22;55583;53.012;6.556;2023-05-02T00:22:21;10.40;99.90
52743;DHT22;55583;53.012;6.556;2023-05-02T00:24:46;10.40;99.90
52743;DHT22;55583;53.012;6.556;2023-05-02T00:27:12;10.30;99.90
52743;DHT22;55583;53.012;6.556;2023-05-02T00:29:38;10.30;99.90
52743;DHT22;55583;53.012;6.556;2023-05-02T00:32:05;10.20;99.90
52743;DHT22;55583;53.012;6.556;2023-05-02T00:34:31;10.20;99.90
52743;DHT22;55583;53.012;6.556;2023-05-02T00:36:56;10.10;99.90
52743;DHT22;55583;53.012;6.556;2023-05-02T00:39:22;10.10;99.90
52743;DHT22;55583;53.012;6.556;2023-05-02T00:41:48;10.00;99.90
52743;DHT22;55583;53.012;6.556;2023-05-02T00:44:14;10.00;99.90
52743;DHT22;55583;53.012;6.556;2023-05-02T00:46:41;10.00;99.90
52743;DHT22;55583;53.012;6.556;2023-05-02T00:49:07;10.20;99.90
52743;DHT22;55583;53.012;6.556;2023-05-02T00:51:32;10.00;99.90
52743;DHT22;55583;53.012;6.556;2023-05-02T00:53:59;10.10;99.90
52743;DHT22;55583;53.012;6.556;2023-05-02T00:56:26;10.00;99.90
52743;DHT22;55583;53.012;6.556;2023-05-02T00:58:52;10.00;99.90
52743;DHT22;55583;53.012;6.556;2023-05-02T01:14:52;10.00;99.90
52743;DHT22;55583;53.012;6.556;2023-05-02T01:17:23;10.00;99.90
52743;DHT22;55583;53.012;6.556;2023-05-02T01:19:52;10.00;99.90
52743;DHT22;55583;53.012;6.556;2023-05-02T01:22:19;10.00;99.90
52743;DHT22;55583;53.012;6.556;2023-05-02T01:25:21;10.20;99.90
52743;DHT22;55583;53.012;6.556;2023-05-02T01:30:51;9.90;99.90
52743;DHT22;55583;53.012;6.556;2023-05-02T01:33:20;9.90;99.90
52743;DHT22;55583;53.012;6.556;2023-05-02T01:35:49;9.90;99.90
52743;DHT22;55583;53.012;6.556;2023-05-02T01:38:17;10.40;99.90
52743;DHT22;55583;53.012;6.556;2023-05-02T01:40:46;10.10;99.90
52743;DHT22;55583;53.012;6.556;2023-05-02T01:43:14;10.10;99.90
52743;DHT22;55583;53.012;6.556;2023-05-02T01:45:43;9.90;99.90
52743;DHT22;55583;53.012;6.556;2023-05-02T01:48:10;9.90;99.90
52743;DHT22;55583;53.012;6.556;2023-05-02T01:50:36;9.90;99.90
52743;DHT22;55583;53.012;6.556;2023-05-02T01:53:03;10.00;99.90
52743;DHT22;55583;53.012;6.556;2023-05-02T01:55:34;10.00;99.90
52743;DHT22;55583;53.012;6.556;2023-05-02T01:58:01;10.10;99.90
52743;DHT22;55583;53.012;6.556;2023-05-02T02:00:28;9.90;99.90
52743;DHT22;55583;53.012;6.556;2023-05-02T02:02:56;9.90;99.90
52743;DHT22;55583;53.012;6.556;2023-05-02T02:05:23;10.30;99.90
52743;DHT22;55583;53.012;6.556;2023-05-02T02:07:49;9.90;99.90
52743;DHT22;55583;53.012;6.556;2023-05-02T02:10:15;9.80;99.90
52743;DHT22;55583;53.012;6.556;2023-05-02T02:12:44;9.70;99.90
52743;DHT22;55583;53.012;6.556;2023-05-02T02:15:19;10.00;99.90
52743;DHT22;55583;53.012;6.556;2023-05-02T02:17:48;9.60;99.90
52743;DHT22;55583;53.012;6.556;2023-05-02T02:20:18;9.50;99.90
52743;DHT22;55583;53.012;6.556;2023-05-02T02:22:44;9.50;99.90
52743;DHT22;55583;53.012;6.556;2023-05-02T02:25:14;9.70;99.90
52743;DHT22;55583;53.012;6.556;2023-05-02T02:27:40;9.50;99.90
52743;DHT22;55583;53.012;6.556;2023-05-02T02:30:07;9.50;99.90
52743;DHT22;55583;53.012;6.556;2023-05-02T02:32:33;9.40;99.90
52743;DHT22;55583;53.012;6.556;2023-05-02T02:34:59;9.40;99.90
52743;DHT22;55583;53.012;6.556;2023-05-02T02:40:27;9.40;99.90
52743;DHT22;55583;53.012;6.556;2023-05-02T02:53:18;9.40;99.90
52743;DHT22;55583;53.012;6.556;2023-05-02T02:55:51;9.30;99.90
52743;DHT22;55583;53.012;6.556;2023-05-02T03:01:04;9.00;99.90
52743;DHT22;55583;53.012;6.556;2023-05-02T03:03:31;9.00;99.90
52743;DHT22;55583;53.012;6.556;2023-05-02T03:05:58;9.00;99.90
52743;DHT22;55583;53.012;6.556;2023-05-02T03:08:24;8.90;99.90
52743;DHT22;55583;53.012;6.556;2023-05-02T03:10:50;8.70;99.90
52743;DHT22;55583;53.012;6.556;2023-05-02T03:13:16;8.90;99.90
52743;DHT22;55583;53.012;6.556;2023-05-02T03:18:17;8.90;99.90
52743;DHT22;55583;53.012;6.556;2023-05-02T03:20:42;8.80;99.90
52743;DHT22;55583;53.012;6.556;2023-05-02T03:23:08;8.70;99.90
52743;DHT22;55583;53.012;6.556;2023-05-02T03:25:34;8.70;99.90
52743;DHT22;55583;53.012;6.556;2023-05-02T03:27:59;8.60;99.90
52743;DHT22;55583;53.012;6.556;2023-05-02T03:30:25;8.60;99.90
52743;DHT22;55583;53.012;6.556;2023-05-02T03:32:51;8.60;99.90
52743;DHT22;55583;53.012;6.556;2023-05-02T03:35:17;8.60;99.90
52743;DHT22;55583;53.012;6.556;2023-05-02T03:37:43;8.50;99.90
52743;DHT22;55583;53.012;6.556;2023-05-02T03:40:09;8.40;99.90
52743;DHT22;55583;53.012;6.556;2023-05-02T03:42:35;8.30;99.90
52743;DHT22;55583;53.012;6.556;2023-05-02T03:45:09;8.30;99.90
52743;DHT22;55583;53.012;6.556;2023-05-02T03:47:34;8.30;99.90
52743;DHT22;55583;53.012;6.556;2023-05-02T03:50:00;8.20;99.90
52743;DHT22;55583;53.012;6.556;2023-05-02T03:52:27;8.20;99.90
52743;DHT22;55583;53.012;6.556;2023-05-02T03:54:53;8.10;99.90
52743;DHT22;55583;53.012;6.556;2023-05-02T03:57:19;8.10;99.90
52743;DHT22;55583;53.012;6.556;2023-05-02T03:59:45;8.10;99.90
52743;DHT22;55583;53.012;6.556;2023-05-02T04:02:11;8.10;99.90
52743;DHT22;55583;53.012;6.556;2023-05-02T04:04:37;8.90;99.90
52743;DHT22;55583;53.012;6.556;2023-05-02T04:07:04;8.10;99.90
52743;DHT22;55583;53.012;6.556;2023-05-02T04:09:32;8.10;99.90
52743;DHT22;55583;53.012;6.556;2023-05-02T04:11:58;8.10;99.90
52743;DHT22;55583;53.012;6.556;2023-05-02T04:14:23;8.10;99.90
52743;DHT22;55583;53.012;6.556;2023-05-02T04:16:50;8.10;99.90
52743;DHT22;55583;53.012;6.556;2023-05-02T04:19:17;8.10;99.90
52743;DHT22;55583;53.012;6.556;2023-05-02T04:21:43;8.00;99.90
52743;DHT22;55583;53.012;6.556;2023-05-02T04:24:09;8.00;99.90
52743;DHT22;55583;53.012;6.556;2023-05-02T04:26:35;8.00;99.90
52743;DHT22;55583;53.012;6.556;2023-05-02T04:29:01;8.30;99.90
52743;DHT22;55583;53.012;6.556;2023-05-02T04:31:30;8.00;99.90
52743;DHT22;55583;53.012;6.556;2023-05-02T04:33:55;8.00;99.90
52743;DHT22;55583;53.012;6.556;2023-05-02T04:36:21;7.90;99.90
52743;DHT22;55583;53.012;6.556;2023-05-02T04:38:47;8.00;99.90
52743;DHT22;55583;53.012;6.556;2023-05-02T04:41:14;7.90;99.90
52743;DHT22;55583;53.012;6.556;2023-05-02T04:43:39;7.90;99.90
52743;DHT22;55583;53.012;6.556;2023-05-02T04:46:05;7.90;99.90
52743;DHT22;55583;53.012;6.556;2023-05-02T04:48:30;7.90;99.90
52743;DHT22;55583;53.012;6.556;2023-05-02T04:50:56;7.90;99.90
52743;DHT22;55583;53.012;6.556;2023-05-02T04:53:22;7.90;99.90
52743;DHT22;55583;53.012;6.556;2023-05-02T04:55:48;7.90;99.90
52743;DHT22;55583;53.012;6.556;2023-05-02T04:58:14;7.90;99.90
52743;DHT22;55583;53.012;6.556;2023-05-02T05:00:39;7.90;99.90
52743;DHT22;55583;53.012;6.556;2023-05-02T05:03:05;8.20;99.90
52743;DHT22;55583;53.012;6.556;2023-05-02T05:05:31;7.90;99.90
52743;DHT22;55583;53.012;6.556;2023-05-02T05:07:57;7.90;99.90
52743;DHT22;55583;53.012;6.556;2023-05-02T05:10:22;7.90;99.90
52743;DHT22;55583;53.012;6.556;2023-05-02T05:12:48;7.90;99.90
52743;DHT22;55583;53.012;6.556;2023-05-02T05:15:14;8.20;99.90
52743;DHT22;55583;53.012;6.556;2023-05-02T05:17:40;8.00;99.90
52743;DHT22;55583;53.012;6.556;2023-05-02T05:20:07;8.00;99.90
52743;DHT22;55583;53.012;6.556;2023-05-02T05:22:41;8.00;99.90
52743;DHT22;55583;53.012;6.556;2023-05-02T05:25:10;8.00;99.90
52743;DHT22;55583;53.012;6.556;2023-05-02T05:27:36;8.00;99.90
52743;DHT22;55583;53.012;6.556;2023-05-02T05:30:02;8.20;99.90
52743;DHT22;55583;53.012;6.556;2023-05-02T05:32:28;8.00;99.90
52743;DHT22;55583;53.012;6.556;2023-05-02T05:34:54;8.40;99.90
52743;DHT22;55583;53.012;6.556;2023-05-02T05:37:21;8.40;99.90
52743;DHT22;55583;53.012;6.556;2023-05-02T05:39:47;8.00;99.90
52743;DHT22;55583;53.012;6.556;2023-05-02T05:42:13;8.00;99.90
52743;DHT22;55583;53.012;6.556;2023-05-02T05:44:40;8.00;99.90
52743;DHT22;55583;53.012;6.556;2023-05-02T05:47:06;8.00;99.90
52743;DHT22;55583;53.012;6.556;2023-05-02T05:49:32;8.00;99.90
52743;DHT22;55583;53.012;6.556;2023-05-02T05:51:57;8.00;99.90
52743;DHT22;55583;53.012;6.556;2023-05-02T05:54:23;8.50;99.90
52743;DHT22;55583;53.012;6.556;2023-05-02T05:56:49;8.00;99.90
52743;DHT22;55583;53.012;6.556;2023-05-02T05:59:14;8.10;99.90
52743;DHT22;55583;53.012;6.556;2023-05-02T06:01:40;8.10;99.90
52743;DHT22;55583;53.012;6.556;2023-05-02T06:04:06;8.30;99.90
52743;DHT22;55583;53.012;6.556;2023-05-02T06:06:33;8.20;99.90
52743;DHT22;55583;53.012;6.556;2023-05-02T06:08:59;8.60;99.90
52743;DHT22;55583;53.012;6.556;2023-05-02T06:11:25;8.20;99.90
52743;DHT22;55583;53.012;6.556;2023-05-02T06:13:51;8.20;99.90
52743;DHT22;55583;53.012;6.556;2023-05-02T06:16:17;8.10;99.90
52743;DHT22;55583;53.012;6.556;2023-05-02T06:18:44;8.10;99.90
52743;DHT22;55583;53.012;6.556;2023-05-02T06:21:09;8.20;99.90
52743;DHT22;55583;53.012;6.556;2023-05-02T06:23:35;8.20;99.90
52743;DHT22;55583;53.012;6.556;2023-05-02T06:26:02;8.20;99.90
52743;DHT22;55583;53.012;6.556;2023-05-02T06:28:28;8.20;99.90
52743;DHT22;55583;53.012;6.556;2023-05-02T06:31:02;8.30;99.90
52743;DHT22;55583;53.012;6.556;2023-05-02T06:33:28;8.30;99.90
52743;DHT22;55583;53.012;6.556;2023-05-02T06:35:55;8.30;99.90
52743;DHT22;55583;53.012;6.556;2023-05-02T06:38:21;8.30;99.90
52743;DHT22;55583;53.012;6.556;2023-05-02T06:40:47;8.40;99.90
52743;DHT22;55583;53.012;6.556;2023-05-02T06:43:13;8.40;99.90
52743;DHT22;55583;53.012;6.556;2023-05-02T06:45:39;8.40;99.90
52743;DHT22;55583;53.012;6.556;2023-05-02T06:48:05;8.50;99.90
52743;DHT22;55583;53.012;6.556;2023-05-02T06:50:32;8.50;99.90
52743;DHT22;55583;53.012;6.556;2023-05-02T06:52:57;8.60;99.90
52743;DHT22;55583;53.012;6.556;2023-05-02T06:55:23;8.60;99.90
52743;DHT22;55583;53.012;6.556;2023-05-02T06:57:50;8.60;99.70
52743;DHT22;55583;53.012;6.556;2023-05-02T07:00:16;8.70;98.80
52743;DHT22;55583;53.012;6.556;2023-05-02T07:02:44;8.80;98.20
52743;DHT22;55583;53.012;6.556;2023-05-02T07:05:10;8.80;97.00
52743;DHT22;55583;53.012;6.556;2023-05-02T07:07:36;8.90;96.00
52743;DHT22;55583;53.012;6.556;2023-05-02T07:10:02;9.00;95.20
52743;DHT22;55583;53.012;6.556;2023-05-02T07:12:31;9.00;94.40
52743;DHT22;55583;53.012;6.556;2023-05-02T07:15:11;9.00;94.00
52743;DHT22;55583;53.012;6.556;2023-05-02T07:17:44;9.10;93.00
52743;DHT22;55583;53.012;6.556;2023-05-02T07:24:29;9.20;88.70
52743;DHT22;55583;53.012;6.556;2023-05-02T07:26:54;10.00;92.20
52743;DHT22;55583;53.012;6.556;2023-05-02T07:29:20;9.70;91.70
52743;DHT22;55583;53.012;6.556;2023-05-02T07:31:46;9.30;90.30
52743;DHT22;55583;53.012;6.556;2023-05-02T07:34:11;9.30;90.00
52743;DHT22;55583;53.012;6.556;2023-05-02T07:36:37;9.30;87.20
52743;DHT22;55583;53.012;6.556;2023-05-02T07:39:03;9.30;87.00
52743;DHT22;55583;53.012;6.556;2023-05-02T07:41:29;9.40;87.10
52743;DHT22;55583;53.012;6.556;2023-05-02T07:43:54;9.50;86.50
52743;DHT22;55583;53.012;6.556;2023-05-02T07:46:22;9.70;84.00
52743;DHT22;55583;53.012;6.556;2023-05-02T07:48:48;9.70;79.70
52743;DHT22;55583;53.012;6.556;2023-05-02T07:51:13;9.80;78.20
52743;DHT22;55583;53.012;6.556;2023-05-02T07:53:39;10.00;76.80
52743;DHT22;55583;53.012;6.556;2023-05-02T07:56:06;10.20;76.10
52743;DHT22;55583;53.012;6.556;2023-05-02T07:58:34;10.30;74.30
52743;DHT22;55583;53.012;6.556;2023-05-02T08:01:00;10.40;73.40
52743;DHT22;55583;53.012;6.556;2023-05-02T08:03:26;10.50;72.70
52743;DHT22;55583;53.012;6.556;2023-05-02T08:09:32;10.40;69.80
52743;DHT22;55583;53.012;6.556;2023-05-02T08:12:26;10.30;72.40
52743;DHT22;55583;53.012;6.556;2023-05-02T08:15:09;10.30;71.90
52743;DHT22;55583;53.012;6.556;2023-05-02T08:17:45;10.30;69.50
52743;DHT22;55583;53.012;6.556;2023-05-02T08:20:11;11.50;73.00
52743;DHT22;55583;53.012;6.556;2023-05-02T08:22:36;10.20;72.40
52743;DHT22;55583;53.012;6.556;2023-05-02T08:25:02;10.20;72.40
52743;DHT22;55583;53.012;6.556;2023-05-02T08:27:28;10.20;72.50
52743;DHT22;55583;53.012;6.556;2023-05-02T08:29:53;10.30;72.20
52743;DHT22;55583;53.012;6.556;2023-05-02T08:32:19;10.30;72.60
52743;DHT22;55583;53.012;6.556;2023-05-02T08:34:45;10.50;72.10
52743;DHT22;55583;53.012;6.556;2023-05-02T08:37:10;11.10;72.30
52743;DHT22;55583;53.012;6.556;2023-05-02T08:39:37;10.60;71.70
52743;DHT22;55583;53.012;6.556;2023-05-02T08:42:09;11.00;72.00
52743;DHT22;55583;53.012;6.556;2023-05-02T08:44:36;10.70;70.30
52743;DHT22;55583;53.012;6.556;2023-05-02T08:47:02;10.60;71.90
52743;DHT22;55583;53.012;6.556;2023-05-02T08:49:31;10.50;73.20
52743;DHT22;55583;53.012;6.556;2023-05-02T08:51:58;10.40;74.70
52743;DHT22;55583;53.012;6.556;2023-05-02T08:54:24;10.40;75.40
52743;DHT22;55583;53.012;6.556;2023-05-02T08:56:52;10.50;74.90
52743;DHT22;55583;53.012;6.556;2023-05-02T08:59:19;10.60;73.20
52743;DHT22;55583;53.012;6.556;2023-05-02T09:01:48;10.80;73.20
52743;DHT22;55583;53.012;6.556;2023-05-02T09:04:22;11.10;71.30
52743;DHT22;55583;53.012;6.556;2023-05-02T09:06:48;11.20;70.80
52743;DHT22;55583;53.012;6.556;2023-05-02T09:09:13;11.60;70.50
52743;DHT22;55583;53.012;6.556;2023-05-02T09:11:39;11.40;70.10
52743;DHT22;55583;53.012;6.556;2023-05-02T09:14:15;11.50;69.00
52743;DHT22;55583;53.012;6.556;2023-05-02T09:16:41;11.60;67.60
52743;DHT22;55583;53.012;6.556;2023-05-02T09:19:07;11.80;67.90
52743;DHT22;55583;53.012;6.556;2023-05-02T09:21:37;11.90;67.60
52743;DHT22;55583;53.012;6.556;2023-05-02T09:24:21;11.90;66.70
52743;DHT22;55583;53.012;6.556;2023-05-02T09:26:58;11.70;65.10
52743;DHT22;55583;53.012;6.556;2023-05-02T09:29:26;11.70;66.40
52743;DHT22;55583;53.012;6.556;2023-05-02T09:31:51;11.60;67.40
52743;DHT22;55583;53.012;6.556;2023-05-02T09:34:18;11.80;66.60
52743;DHT22;55583;53.012;6.556;2023-05-02T09:36:45;11.30;66.70
52743;DHT22;55583;53.012;6.556;2023-05-02T09:39:22;11.30;66.10
52743;DHT22;55583;53.012;6.556;2023-05-02T09:41:48;11.30;65.60
52743;DHT22;55583;53.012;6.556;2023-05-02T09:44:19;11.30;66.60
52743;DHT22;55583;53.012;6.556;2023-05-02T09:46:49;11.40;67.10
52743;DHT22;55583;53.012;6.556;2023-05-02T09:49:15;11.80;67.60
52743;DHT22;55583;53.012;6.556;2023-05-02T09:51:48;11.50;67.20
52743;DHT22;55583;53.012;6.556;2023-05-02T09:54:32;11.70;67.10
52743;DHT22;55583;53.012;6.556;2023-05-02T09:56:59;11.80;67.10
52743;DHT22;55583;53.012;6.556;2023-05-02T09:59:26;11.70;65.60
52743;DHT22;55583;53.012;6.556;2023-05-02T10:02:00;11.80;66.30
52743;DHT22;55583;53.012;6.556;2023-05-02T10:04:27;11.80;66.00
52743;DHT22;55583;53.012;6.556;2023-05-02T10:06:54;11.80;66.60
52743;DHT22;55583;53.012;6.556;2023-05-02T10:09:20;11.80;66.60
52743;DHT22;55583;53.012;6.556;2023-05-02T10:11:49;11.80;66.30
52743;DHT22;55583;53.012;6.556;2023-05-02T10:14:15;11.80;66.00
52743;DHT22;55583;53.012;6.556;2023-05-02T10:17:04;11.80;66.50
52743;DHT22;55583;53.012;6.556;2023-05-02T10:19:40;11.80;64.50
52743;DHT22;55583;53.012;6.556;2023-05-02T10:22:07;11.90;66.00
52743;DHT22;55583;53.012;6.556;2023-05-02T10:24:33;12.20;66.10
52743;DHT22;55583;53.012;6.556;2023-05-02T10:26:59;12.40;66.00
52743;DHT22;55583;53.012;6.556;2023-05-02T10:29:30;12.90;64.80
52743;DHT22;55583;53.012;6.556;2023-05-02T10:31:57;13.50;63.50
52743;DHT22;55583;53.012;6.556;2023-05-02T10:34:26;13.70;62.50
52743;DHT22;55583;53.012;6.556;2023-05-02T10:36:54;13.70;62.30
52743;DHT22;55583;53.012;6.556;2023-05-02T10:39:19;13.60;62.20
52743;DHT22;55583;53.012;6.556;2023-05-02T10:41:50;13.50;62.50
52743;DHT22;55583;53.012;6.556;2023-05-02T10:44:17;13.50;61.30
52743;DHT22;55583;53.012;6.556;2023-05-02T10:46:43;13.70;61.00
52743;DHT22;55583;53.012;6.556;2023-05-02T10:49:11;14.50;59.70
52743;DHT22;55583;53.012;6.556;2023-05-02T10:51:38;15.10;57.60
52743;DHT22;55583;53.012;6.556;2023-05-02T10:54:24;15.10;57.30
52743;DHT22;55583;53.012;6.556;2023-05-02T10:59:32;14.60;57.20
52743;DHT22;55583;53.012;6.556;2023-05-02T11:01:58;14.20;58.70
52743;DHT22;55583;53.012;6.556;2023-05-02T11:04:58;13.90;60.30
52743;DHT22;55583;53.012;6.556;2023-05-02T11:07:26;13.50;60.00
52743;DHT22;55583;53.012;6.556;2023-05-02T11:09:51;13.20;60.50
52743;DHT22;55583;53.012;6.556;2023-05-02T11:12:50;13.10;61.10
52743;DHT22;55583;53.012;6.556;2023-05-02T11:18:06;13.30;62.20
52743;DHT22;55583;53.012;6.556;2023-05-02T11:20:37;14.00;61.70
52743;DHT22;55583;53.012;6.556;2023-05-02T11:25:49;14.50;58.50
52743;DHT22;55583;53.012;6.556;2023-05-02T11:33:56;14.10;60.00
52743;DHT22;55583;53.012;6.556;2023-05-02T11:36:31;13.80;60.50
52743;DHT22;55583;53.012;6.556;2023-05-02T11:39:03;13.60;61.30
52743;DHT22;55583;53.012;6.556;2023-05-02T11:41:39;13.50;61.80
52743;DHT22;55583;53.012;6.556;2023-05-02T11:44:05;13.40;62.50
52743;DHT22;55583;53.012;6.556;2023-05-02T11:46:39;13.10;63.50
52743;DHT22;55583;53.012;6.556;2023-05-02T11:49:05;12.90;64.30
52743;DHT22;55583;53.012;6.556;2023-05-02T11:51:33;12.60;64.80
52743;DHT22;55583;53.012;6.556;2023-05-02T11:53:59;12.50;65.70
52743;DHT22;55583;53.012;6.556;2023-05-02T11:56:25;12.50;66.70
52743;DHT22;55583;53.012;6.556;2023-05-02T11:59:02;12.30;67.30
52743;DHT22;55583;53.012;6.556;2023-05-02T12:01:28;12.40;68.10
52743;DHT22;55583;53.012;6.556;2023-05-02T12:04:07;12.60;68.00
52743;DHT22;55583;53.012;6.556;2023-05-02T12:06:33;12.90;66.60
52743;DHT22;55583;53.012;6.556;2023-05-02T12:09:14;13.30;65.70
52743;DHT22;55583;53.012;6.556;2023-05-02T12:11:53;13.70;63.80
52743;DHT22;55583;53.012;6.556;2023-05-02T12:14:26;13.80;63.70
52743;DHT22;55583;53.012;6.556;2023-05-02T12:16:56;14.30;64.60
52743;DHT22;55583;53.012;6.556;2023-05-02T12:19:22;13.70;64.10
52743;DHT22;55583;53.012;6.556;2023-05-02T12:21:49;13.50;64.00
52743;DHT22;55583;53.012;6.556;2023-05-02T12:24:15;13.50;64.10
52743;DHT22;55583;53.012;6.556;2023-05-02T12:26:41;14.00;64.00
52743;DHT22;55583;53.012;6.556;2023-05-02T12:29:07;13.40;63.20
52743;DHT22;55583;53.012;6.556;2023-05-02T12:31:33;13.50;62.70
52743;DHT22;55583;53.012;6.556;2023-05-02T12:33:59;13.80;62.50
52743;DHT22;55583;53.012;6.556;2023-05-02T12:36:26;14.00;61.60
52743;DHT22;55583;53.012;6.556;2023-05-02T12:39:00;14.30;60.50
52743;DHT22;55583;53.012;6.556;2023-05-02T12:41:34;14.50;59.70
52743;DHT22;55583;53.012;6.556;2023-05-02T12:44:02;14.80;59.00
52743;DHT22;55583;53.012;6.556;2023-05-02T12:46:28;14.30;59.10
52743;DHT22;55583;53.012;6.556;2023-05-02T12:49:08;14.20;59.40
52743;DHT22;55583;53.012;6.556;2023-05-02T12:51:37;14.20;58.80
52743;DHT22;55583;53.012;6.556;2023-05-02T12:54:04;14.00;60.40
52743;DHT22;55583;53.012;6.556;2023-05-02T12:56:41;13.80;60.30
52743;DHT22;55583;53.012;6.556;2023-05-02T12:59:08;13.50;61.10
52743;DHT22;55583;53.012;6.556;2023-05-02T13:01:35;13.20;61.80
52743;DHT22;55583;53.012;6.556;2023-05-02T13:04:00;13.10;62.40
52743;DHT22;55583;53.012;6.556;2023-05-02T13:06:26;13.10;63.00
52743;DHT22;55583;53.012;6.556;2023-05-02T13:08:52;13.10;62.10
52743;DHT22;55583;53.012;6.556;2023-05-02T13:11:17;13.40;62.20
52743;DHT22;55583;53.012;6.556;2023-05-02T13:13:43;14.00;61.30
52743;DHT22;55583;53.012;6.556;2023-05-02T13:16:09;14.30;59.50
52743;DHT22;55583;53.012;6.556;2023-05-02T13:18:35;14.50;58.90
52743;DHT22;55583;53.012;6.556;2023-05-02T13:21:00;14.60;57.80
52743;DHT22;55583;53.012;6.556;2023-05-02T13:23:26;14.80;57.60
52743;DHT22;55583;53.012;6.556;2023-05-02T13:25:52;14.90;57.20
52743;DHT22;55583;53.012;6.556;2023-05-02T13:28:17;14.90;57.30
52743;DHT22;55583;53.012;6.556;2023-05-02T13:30:43;15.00;57.30
52743;DHT22;55583;53.012;6.556;2023-05-02T13:33:09;15.20;57.10
52743;DHT22;55583;53.012;6.556;2023-05-02T13:35:35;15.30;56.50
52743;DHT22;55583;53.012;6.556;2023-05-02T13:38:00;15.00;55.70
52743;DHT22;55583;53.012;6.556;2023-05-02T13:40:26;14.80;56.10
52743;DHT22;55583;53.012;6.556;2023-05-02T13:42:52;14.60;56.40
52743;DHT22;55583;53.012;6.556;2023-05-02T13:45:17;14.20;56.20
52743;DHT22;55583;53.012;6.556;2023-05-02T13:47:43;14.10;55.70
52743;DHT22;55583;53.012;6.556;2023-05-02T13:50:09;14.70;56.40
52743;DHT22;55583;53.012;6.556;2023-05-02T13:52:34;15.10;58.00
52743;DHT22;55583;53.012;6.556;2023-05-02T13:55:00;15.30;58.50
52743;DHT22;55583;53.012;6.556;2023-05-02T13:57:26;14.90;59.20
52743;DHT22;55583;53.012;6.556;2023-05-02T13:59:51;14.90;59.70
52743;DHT22;55583;53.012;6.556;2023-05-02T14:02:17;14.40;60.00
52743;DHT22;55583;53.012;6.556;2023-05-02T14:04:42;14.30;60.50
52743;DHT22;55583;53.012;6.556;2023-05-02T14:07:08;14.10;60.80
52743;DHT22;55583;53.012;6.556;2023-05-02T14:09:34;13.90;60.40
52743;DHT22;55583;53.012;6.556;2023-05-02T14:11:59;13.60;59.40
52743;DHT22;55583;53.012;6.556;2023-05-02T14:14:26;13.50;59.20
52743;DHT22;55583;53.012;6.556;2023-05-02T14:16:52;13.50;58.90
52743;DHT22;55583;53.012;6.556;2023-05-02T14:19:17;13.70;58.80
52743;DHT22;55583;53.012;6.556;2023-05-02T14:21:43;14.10;58.70
52743;DHT22;55583;53.012;6.556;2023-05-02T14:24:09;14.20;57.80
52743;DHT22;55583;53.012;6.556;2023-05-02T14:26:36;14.40;57.40
52743;DHT22;55583;53.012;6.556;2023-05-02T14:29:02;14.60;57.30
52743;DHT22;55583;53.012;6.556;2023-05-02T14:31:28;14.90;56.80
52743;DHT22;55583;53.012;6.556;2023-05-02T14:33:53;15.40;56.50
52743;DHT22;55583;53.012;6.556;2023-05-02T14:36:19;15.90;56.40
52743;DHT22;55583;53.012;6.556;2023-05-02T14:38:45;15.90;56.30
52743;DHT22;55583;53.012;6.556;2023-05-02T14:41:10;15.60;56.20
52743;DHT22;55583;53.012;6.556;2023-05-02T14:43:36;15.30;56.60
52743;DHT22;55583;53.012;6.556;2023-05-02T14:46:02;15.00;56.40
52743;DHT22;55583;53.012;6.556;2023-05-02T14:48:28;14.50;57.10
52743;DHT22;55583;53.012;6.556;2023-05-02T14:50:54;14.20;57.60
52743;DHT22;55583;53.012;6.556;2023-05-02T14:53:20;14.10;57.80
52743;DHT22;55583;53.012;6.556;2023-05-02T14:55:46;14.00;57.70
52743;DHT22;55583;53.012;6.556;2023-05-02T14:58:12;14.00;57.60
52743;DHT22;55583;53.012;6.556;2023-05-02T15:00:44;14.00;57.20
52743;DHT22;55583;53.012;6.556;2023-05-02T15:03:11;14.30;57.30
52743;DHT22;55583;53.012;6.556;2023-05-02T15:05:37;14.60;56.80
52743;DHT22;55583;53.012;6.556;2023-05-02T15:08:03;14.90;56.30
52743;DHT22;55583;53.012;6.556;2023-05-02T15:10:28;14.80;55.80
52743;DHT22;55583;53.012;6.556;2023-05-02T15:12:54;14.70;56.20
52743;DHT22;55583;53.012;6.556;2023-05-02T15:15:20;14.40;56.90
52743;DHT22;55583;53.012;6.556;2023-05-02T15:17:50;14.10;57.70
52743;DHT22;55583;53.012;6.556;2023-05-02T15:20:16;13.80;58.00
52743;DHT22;55583;53.012;6.556;2023-05-02T15:22:42;13.60;58.70
52743;DHT22;55583;53.012;6.556;2023-05-02T15:25:08;13.40;59.00
52743;DHT22;55583;53.012;6.556;2023-05-02T15:27:33;13.30;59.70
52743;DHT22;55583;53.012;6.556;2023-05-02T15:29:59;13.10;60.00
52743;DHT22;55583;53.012;6.556;2023-05-02T15:32:27;13.00;60.60
52743;DHT22;55583;53.012;6.556;2023-05-02T15:34:53;13.10;60.80
52743;DHT22;55583;53.012;6.556;2023-05-02T15:37:18;13.10;60.50
52743;DHT22;55583;53.012;6.556;2023-05-02T15:39:44;13.10;60.70
52743;DHT22;55583;53.012;6.556;2023-05-02T15:42:10;13.10;60.40
52743;DHT22;55583;53.012;6.556;2023-05-02T15:44:35;13.20;60.30
52743;DHT22;55583;53.012;6.556;2023-05-02T15:47:02;13.30;61.70
52743;DHT22;55583;53.012;6.556;2023-05-02T15:49:28;12.90;62.70
52743;DHT22;55583;53.012;6.556;2023-05-02T15:51:58;12.80;63.20
52743;DHT22;55583;53.012;6.556;2023-05-02T15:54:24;12.70;63.80
52743;DHT22;55583;53.012;6.556;2023-05-02T15:56:49;12.60;64.10
52743;DHT22;55583;53.012;6.556;2023-05-02T15:59:15;12.50;64.40
52743;DHT22;55583;53.012;6.556;2023-05-02T16:01:41;12.50;64.40
52743;DHT22;55583;53.012;6.556;2023-05-02T16:04:06;12.20;64.00
52743;DHT22;55583;53.012;6.556;2023-05-02T16:06:34;12.00;64.00
52743;DHT22;55583;53.012;6.556;2023-05-02T16:09:01;11.90;64.10
52743;DHT22;55583;53.012;6.556;2023-05-02T16:11:27;12.20;64.70
52743;DHT22;55583;53.012;6.556;2023-05-02T16:13:52;11.90;64.70
52743;DHT22;55583;53.012;6.556;2023-05-02T16:16:18;11.90;64.50
52743;DHT22;55583;53.012;6.556;2023-05-02T16:18:44;11.90;64.30
52743;DHT22;55583;53.012;6.556;2023-05-02T16:21:09;11.80;64.60
52743;DHT22;55583;53.012;6.556;2023-05-02T16:23:35;11.90;64.60
52743;DHT22;55583;53.012;6.556;2023-05-02T16:26:01;11.80;64.80
52743;DHT22;55583;53.012;6.556;2023-05-02T16:28:27;11.90;64.40
52743;DHT22;55583;53.012;6.556;2023-05-02T16:30:53;11.90;64.30
52743;DHT22;55583;53.012;6.556;2023-05-02T16:33:19;12.30;64.60
52743;DHT22;55583;53.012;6.556;2023-05-02T16:35:46;11.80;64.50